Time;durP1;ratioP1;P1;durP2;ratioP2;P2;SDS_P1;SDS_P2;PMS_P1;PMS_P2;Temp;Humidity;BMP_temperature;BMP_pressure;BME280_temperature;BME280_humidity;BME280_pressure;Samples;Min_cycle;Max_cycle;Signal;HPM_P1;HPM_P2
2021/11/12 00:04:16;;;;;;;97.53;51.85;;;9.90;99.90;;;;;;5001406;28;20713;-82
2021/11/12 00:12:22;;;;;;;93.85;49.33;;;9.90;99.90;;;;;;5001583;28;20276;-83
2021/11/12 00:14:51;;;;;;;94.75;50.20;;;10.00;99.90;;;;;;5003230;28;20204;-81
2021/11/12 00:17:21;;;;;;;89.63;51.28;;;10.00;99.90;;;;;;5000671;28;20610;-82
2021/11/12 00:19:50;;;;;;;92.70;53.67;;;10.00;99.90;;;;;;5002383;28;20284;-82
2021/11/12 00:22:20;;;;;;;92.35;50.10;;;10.00;99.90;;;;;;5000309;28;20290;-82
2021/11/12 00:24:47;;;;;;;92.60;51.00;;;10.00;99.90;;;;;;4992704;28;20205;-83
2021/11/12 00:27:13;;;;;;;108.85;52.10;;;10.00;99.90;;;;;;5002055;28;20288;-82
2021/11/12 00:29:44;;;;;;;104.30;48.90;;;10.10;99.90;;;;;;5001637;28;20635;-83
2021/11/12 00:32:20;;;;;;;102.07;53.28;;;9.90;99.90;;;;;;5003247;28;20239;-83
2021/11/12 00:37:46;;;;;;;112.22;54.97;;;10.00;99.90;;;;;;5004863;28;20198;-82
2021/11/12 00:40:16;;;;;;;108.75;57.33;;;10.00;99.90;;;;;;5002526;28;20197;-83
2021/11/12 00:42:46;;;;;;;85.85;49.03;;;10.00;99.90;;;;;;5001987;28;20229;-83
2021/11/12 00:45:18;;;;;;;97.15;52.33;;;10.20;99.90;;;;;;5002624;28;20281;-83
2021/11/12 00:47:51;;;;;;;106.05;52.13;;;10.10;99.90;;;;;;5001842;28;20301;-82
2021/11/12 00:50:34;;;;;;;93.53;49.80;;;10.10;99.90;;;;;;4994506;28;20270;-82
2021/11/12 00:55:46;;;;;;;105.40;55.72;;;10.20;99.90;;;;;;5015403;28;20221;-82
2021/11/12 00:58:15;;;;;;;101.38;54.22;;;10.10;99.90;;;;;;5012061;28;20225;-83
2021/11/12 01:00:44;;;;;;;105.22;52.80;;;10.10;99.90;;;;;;5010512;28;20241;-82
2021/11/12 01:03:12;;;;;;;91.65;49.40;;;10.10;99.90;;;;;;5012684;28;20353;-82
2021/11/12 01:05:39;;;;;;;83.68;49.03;;;10.10;99.90;;;;;;5017063;28;20293;-83
2021/11/12 01:08:08;;;;;;;84.18;48.75;;;10.20;99.90;;;;;;5016253;28;20245;-83
2021/11/12 01:10:35;;;;;;;99.75;49.08;;;10.30;99.90;;;;;;5016815;28;20198;-83
2021/11/12 01:13:03;;;;;;;98.97;50.75;;;10.40;99.90;;;;;;5017106;28;20270;-83
2021/11/12 01:15:30;;;;;;;99.75;52.20;;;10.30;99.90;;;;;;5016471;28;20196;-83
2021/11/12 01:17:57;;;;;;;107.25;51.85;;;10.20;99.90;;;;;;5016606;28;20287;-83
2021/11/12 08:55:56;;;;;;;65.95;28.90;;;10.20;99.90;;;;;;4972979;28;20309;-83
2021/11/12 08:58:23;;;;;;;57.38;28.23;;;10.10;99.90;;;;;;4974692;28;20203;-83
2021/11/12 09:53:50;;;;;;;38.35;18.00;;;10.70;99.90;;;;;;4984547;28;20213;-87
2021/11/12 09:56:32;;;;;;;34.95;18.10;;;10.70;99.90;;;;;;4976378;28;20210;-87
2021/11/12 09:59:10;;;;;;;38.20;20.13;;;10.50;99.90;;;;;;5012390;28;20190;-89
2021/11/12 10:01:40;;;;;;;37.50;19.00;;;10.60;99.90;;;;;;5002199;28;20240;-85
2021/11/12 10:04:10;;;;;;;38.80;19.80;;;10.60;99.90;;;;;;4993612;28;20207;-87
2021/11/12 10:06:41;;;;;;;38.72;16.25;;;10.60;99.90;;;;;;4998492;28;20211;-88
2021/11/12 10:13:15;;;;;;;29.00;16.70;;;10.80;99.90;;;;;;4885972;29;20206;-87
2021/11/12 13:51:32;;;;;;;7.05;6.25;;;11.10;99.90;;;;;;4983229;28;20223;-85
2021/11/12 13:54:03;;;;;;;14.15;7.22;;;11.00;99.90;;;;;;4986146;28;20201;-86
2021/11/12 13:56:34;;;;;;;8.35;6.90;;;11.10;99.90;;;;;;4983993;28;20216;-81
2021/11/12 13:59:09;;;;;;;8.85;7.25;;;11.00;99.90;;;;;;4996081;28;20199;-84
2021/11/12 14:01:37;;;;;;;10.20;7.47;;;11.00;99.90;;;;;;5001659;28;20227;-84
2021/11/12 14:04:20;;;;;;;10.38;7.20;;;10.90;99.90;;;;;;4990182;28;20208;-85
2021/11/12 14:06:49;;;;;;;9.52;7.00;;;10.90;99.90;;;;;;4993861;28;20203;-83
2021/11/12 14:09:20;;;;;;;8.32;7.03;;;10.90;99.90;;;;;;4992451;28;20230;-83
2021/11/12 14:11:47;;;;;;;6.63;5.93;;;10.90;99.90;;;;;;4990262;28;20227;-85
2021/11/12 14:14:21;;;;;;;8.98;6.50;;;10.90;99.90;;;;;;5003934;28;20520;-85
2021/11/12 14:16:53;;;;;;;9.15;6.95;;;10.80;99.90;;;;;;4993010;28;20206;-86
2021/11/12 14:19:50;;;;;;;9.30;6.60;;;10.80;99.90;;;;;;5004694;28;20223;-85
2021/11/12 14:22:32;;;;;;;8.25;6.85;;;10.60;99.90;;;;;;4976521;28;20199;-84
2021/11/12 14:25:31;;;;;;;8.82;7.10;;;10.70;99.90;;;;;;4976864;28;20217;-87
2021/11/12 14:28:15;;;;;;;9.02;7.75;;;10.70;99.90;;;;;;4988664;28;20614;-85
2021/11/12 14:33:37;;;;;;;9.25;7.38;;;10.60;99.90;;;;;;4992023;28;20205;-85
2021/11/12 14:53:55;;;;;;;10.95;8.20;;;10.40;99.90;;;;;;4960645;28;20226;-86
2021/11/12 14:56:28;;;;;;;8.70;7.20;;;10.40;99.90;;;;;;4984542;28;20277;-84
2021/11/12 15:02:36;;;;;;;11.55;8.50;;;10.30;99.90;;;;;;4960475;29;20247;-84
2021/11/12 15:05:05;;;;;;;18.88;9.50;;;10.20;99.90;;;;;;4955640;28;20310;-84
2021/11/12 15:34:18;;;;;;;14.10;10.05;;;9.60;99.90;;;;;;4907466;29;20171;-84
2021/11/12 15:36:54;;;;;;;12.15;10.45;;;9.60;99.90;;;;;;4931978;28;20238;-83
2021/11/12 15:39:30;;;;;;;14.02;10.98;;;9.50;99.90;;;;;;4985118;28;20274;-83
2021/11/12 15:44:51;;;;;;;14.40;11.52;;;9.50;99.90;;;;;;4962271;28;20243;-82
2021/11/12 15:47:23;;;;;;;12.73;11.10;;;9.50;99.90;;;;;;4990708;28;20278;-84
2021/11/12 15:49:55;;;;;;;13.98;12.38;;;9.50;99.90;;;;;;4991101;28;20285;-84
2021/11/12 15:52:24;;;;;;;13.80;11.70;;;9.60;99.90;;;;;;4992597;28;20202;-83
2021/11/12 16:00:28;;;;;;;18.02;12.70;;;9.50;99.90;;;;;;4977590;28;20223;-85
2021/11/12 16:06:09;;;;;;;16.10;14.18;;;9.40;99.90;;;;;;4964281;28;20431;-85
2021/11/12 16:08:57;;;;;;;16.88;13.05;;;9.30;99.90;;;;;;4994857;28;20214;-84
2021/11/12 16:11:54;;;;;;;17.05;13.45;;;9.50;99.90;;;;;;4987278;28;20233;-85
2021/11/12 16:14:24;;;;;;;19.83;12.90;;;9.50;99.90;;;;;;4987900;28;20215;-84
2021/11/12 16:19:48;;;;;;;18.83;14.43;;;9.40;99.90;;;;;;4979914;28;20253;-85
2021/11/12 16:22:45;;;;;;;19.60;15.13;;;9.20;99.90;;;;;;4989731;28;20198;-85
2021/11/12 16:25:16;;;;;;;20.13;14.65;;;9.10;99.90;;;;;;4992350;28;20270;-84
2021/11/12 16:27:48;;;;;;;21.15;14.18;;;9.10;99.90;;;;;;4993954;28;20209;-85
2021/11/12 16:30:18;;;;;;;21.80;15.57;;;9.20;99.90;;;;;;4994557;28;20571;-86
2021/11/12 16:32:48;;;;;;;18.50;15.50;;;9.00;99.90;;;;;;4987849;28;20264;-86
2021/11/12 16:35:20;;;;;;;21.33;15.32;;;9.10;99.90;;;;;;4990687;28;20282;-84
2021/11/12 16:37:51;;;;;;;26.40;18.67;;;8.90;99.90;;;;;;4992314;28;20223;-85
2021/11/12 16:40:26;;;;;;;24.85;18.10;;;8.90;99.90;;;;;;5002833;28;20274;-84
2021/11/12 16:45:58;;;;;;;24.20;16.85;;;8.80;99.90;;;;;;4977845;28;20222;-85
2021/11/12 16:51:32;;;;;;;25.58;18.08;;;8.90;99.90;;;;;;4993854;28;20241;-86
2021/11/12 16:54:12;;;;;;;26.13;19.23;;;8.80;99.90;;;;;;4990299;28;20229;-85
2021/11/12 16:56:56;;;;;;;26.92;17.80;;;8.80;99.90;;;;;;5001053;28;20201;-84
2021/11/12 16:59:29;;;;;;;28.98;20.25;;;8.70;99.90;;;;;;4998867;28;20643;-85
2021/11/12 17:02:13;;;;;;;29.70;18.80;;;8.70;99.90;;;;;;4993427;28;20206;-85
2021/11/12 17:04:56;;;;;;;23.50;17.25;;;8.60;99.90;;;;;;4987226;28;20213;-84
2021/11/12 17:14:02;;;;;;;25.95;15.98;;;8.60;99.90;;;;;;4987210;28;20202;-85
2021/11/12 17:47:12;;;;;;;28.95;20.33;;;8.70;99.90;;;;;;4986919;28;20261;-84
2021/11/12 17:49:52;;;;;;;27.42;17.85;;;8.60;99.90;;;;;;4985606;28;20248;-84
2021/11/12 17:52:51;;;;;;;20.25;15.90;;;8.40;99.90;;;;;;4992216;28;20582;-84
2021/11/12 18:03:41;;;;;;;26.63;19.23;;;8.40;99.90;;;;;;4996508;28;20213;-85
2021/11/12 18:06:11;;;;;;;26.10;19.48;;;8.40;99.90;;;;;;4991233;28;20206;-84
2021/11/12 21:44:34;;;;;;;36.53;25.73;;;7.70;99.90;;;;;;4960574;28;20200;-80
2021/11/12 21:47:01;;;;;;;38.88;24.08;;;7.70;99.90;;;;;;4964576;28;20726;-80
2021/11/12 21:49:28;;;;;;;34.85;23.63;;;7.60;99.90;;;;;;4968535;28;20313;-81
2021/11/12 21:51:59;;;;;;;29.38;21.80;;;7.60;99.90;;;;;;4962108;28;20207;-80
2021/11/12 21:54:26;;;;;;;31.02;22.25;;;7.60;99.90;;;;;;4977598;28;20362;-79
2021/11/12 21:56:55;;;;;;;36.55;22.52;;;7.70;99.90;;;;;;4961415;28;20263;-74
2021/11/12 21:59:23;;;;;;;32.80;22.23;;;7.60;99.90;;;;;;4956712;28;20266;-76
2021/11/12 22:01:50;;;;;;;34.90;22.92;;;7.60;99.90;;;;;;4955126;28;20540;-76
2021/11/12 22:04:18;;;;;;;32.38;22.98;;;7.60;99.90;;;;;;4958637;28;20218;-75
2021/11/12 22:06:45;;;;;;;38.58;25.40;;;7.70;99.90;;;;;;4959274;28;20233;-78
2021/11/12 22:09:13;;;;;;;29.15;21.58;;;7.70;99.90;;;;;;4948407;28;20617;-73
2021/11/12 22:11:41;;;;;;;30.33;21.92;;;7.60;99.90;;;;;;4966966;28;20229;-76
2021/11/12 22:14:08;;;;;;;31.77;21.17;;;7.70;99.90;;;;;;4965684;28;20209;-80
2021/11/12 22:16:36;;;;;;;34.30;23.48;;;7.70;99.90;;;;;;4964616;28;20222;-75
2021/11/12 22:19:04;;;;;;;32.45;22.77;;;7.80;99.90;;;;;;4948303;28;20509;-78
2021/11/12 22:21:31;;;;;;;33.58;23.40;;;7.80;99.90;;;;;;4961130;28;20201;-79
2021/11/12 22:23:59;;;;;;;32.97;21.95;;;7.80;99.90;;;;;;4965307;28;20198;-76
2021/11/12 22:26:28;;;;;;;33.75;24.52;;;7.80;99.90;;;;;;4970272;28;20695;-79
2021/11/12 22:28:55;;;;;;;26.88;21.02;;;7.90;99.90;;;;;;4964784;28;20211;-77
2021/11/12 22:31:23;;;;;;;29.15;22.00;;;7.90;99.90;;;;;;4966899;28;20241;-78
2021/11/12 22:33:51;;;;;;;27.25;19.40;;;7.90;99.90;;;;;;4965909;28;20211;-78
2021/11/12 22:36:18;;;;;;;29.80;19.25;;;8.10;99.90;;;;;;4959539;28;20265;-72
2021/11/12 22:38:47;;;;;;;31.98;21.17;;;7.90;99.90;;;;;;4985142;28;20220;-76
2021/11/12 22:41:14;;;;;;;30.23;21.05;;;7.80;99.90;;;;;;4964003;28;20210;-81
2021/11/12 22:43:43;;;;;;;35.95;23.08;;;7.80;99.90;;;;;;4969597;28;20297;-79
2021/11/12 22:46:10;;;;;;;31.15;22.42;;;7.80;99.90;;;;;;4959019;29;20230;-76
2021/11/12 22:48:38;;;;;;;32.75;23.13;;;7.80;99.90;;;;;;4961826;28;20278;-78
2021/11/12 22:51:05;;;;;;;30.63;21.77;;;7.70;99.90;;;;;;4958147;28;20274;-79
2021/11/12 22:53:33;;;;;;;29.38;21.30;;;7.70;99.90;;;;;;4959126;28;20202;-80
2021/11/12 22:56:00;;;;;;;30.58;22.25;;;7.80;99.90;;;;;;4964948;28;20250;-80
2021/11/12 22:58:29;;;;;;;27.27;19.90;;;7.70;99.90;;;;;;4953942;28;20558;-81
2021/11/12 23:01:11;;;;;;;28.48;20.50;;;7.70;99.90;;;;;;4954579;28;20215;-75
2021/11/12 23:03:38;;;;;;;28.05;21.85;;;7.70;99.90;;;;;;4949851;28;20218;-77
2021/11/12 23:06:06;;;;;;;32.90;22.75;;;7.60;99.90;;;;;;4948665;28;20319;-78
2021/11/12 23:08:34;;;;;;;35.38;20.58;;;7.60;99.90;;;;;;4950430;28;20261;-78
2021/11/12 23:11:02;;;;;;;33.55;23.10;;;7.60;99.90;;;;;;4959710;28;20217;-74
2021/11/12 23:13:30;;;;;;;32.45;21.83;;;7.60;99.90;;;;;;4958883;28;20212;-79
2021/11/12 23:15:58;;;;;;;29.83;22.55;;;7.50;99.90;;;;;;4951218;28;20226;-77
2021/11/12 23:18:28;;;;;;;29.13;18.58;;;7.50;99.90;;;;;;4951450;28;20211;-78
2021/11/12 23:20:57;;;;;;;33.42;21.20;;;7.50;99.90;;;;;;4951922;28;20255;-77
2021/11/12 23:23:26;;;;;;;37.97;23.00;;;7.40;99.90;;;;;;4957676;28;20205;-78
2021/11/12 23:25:54;;;;;;;32.33;22.35;;;7.40;99.90;;;;;;4963039;28;20225;-78
2021/11/12 23:28:22;;;;;;;32.70;25.42;;;7.40;99.90;;;;;;4954427;28;20252;-77
2021/11/12 23:30:49;;;;;;;33.70;24.27;;;7.40;99.90;;;;;;4975667;28;20233;-77
2021/11/12 23:33:16;;;;;;;32.70;22.23;;;7.50;99.90;;;;;;4973609;28;20203;-77
2021/11/12 23:35:46;;;;;;;27.33;21.27;;;7.50;99.90;;;;;;4970617;28;20670;-78
2021/11/12 23:38:13;;;;;;;29.52;20.40;;;7.50;99.90;;;;;;4961471;28;20198;-78
2021/11/12 23:40:40;;;;;;;28.92;21.83;;;7.50;99.90;;;;;;4957953;28;20305;-77
2021/11/12 23:43:07;;;;;;;31.15;22.08;;;7.60;99.90;;;;;;4964565;28;20216;-78
2021/11/12 23:45:34;;;;;;;32.22;22.35;;;7.60;99.90;;;;;;4962149;28;20245;-80
2021/11/12 23:48:04;;;;;;;31.85;23.02;;;7.60;99.90;;;;;;4954376;28;20211;-77
2021/11/12 23:50:31;;;;;;;31.85;21.45;;;7.60;99.90;;;;;;4948535;28;20283;-77
2021/11/12 23:53:00;;;;;;;30.15;20.75;;;7.50;99.90;;;;;;4967529;28;20209;-76
2021/11/12 23:55:27;;;;;;;33.17;22.13;;;7.50;99.90;;;;;;4965138;28;20209;-79
2021/11/12 23:57:54;;;;;;;28.75;21.13;;;7.50;99.90;;;;;;4964449;28;20578;-77
